Aérodrome :
LOGIN :

S'inscrire | Disclaimer

   EN    FR    IT 

 










Légende :    VFR   VFR Marginal   IFR   IFR Intensif   IFR Très Intensif
Visi : 
Plafond : 
>= 8 km
>= 3000ft
5 à 8 km
1000 à 3000 ft
1500m à 5 km
500 à 1000 ft
800 à 1500m
200 à 500 ft
< 800m
< 200 ft
Symboles :   Orages  Brouillard  Fortes neiges  Fortes précipitations  Vent > 20 kt
SIGMETs :   Divers  Orages  Givrage  Turbulence  Onde Orograph.  Cendres Volcan.






- Altitude de l'aérodrome : 390 ft
- Code IATA : NQY


EGHQ - Newquay

DERNIER METAR :
  • 071350Z 23013KT 9999 BKN013 10/08 Q1014

METARs EXPIRÉS :
  • 071320Z 23010KT 9999 BKN009 10/09 Q1015
  • 071250Z 22010KT 9999 BKN011 10/09 Q1015
  • 071220Z 22010KT 9999 VCSH BKN006 10/09 Q1015
  • 071150Z 23011KT 9999 SCT007 10/09 Q1015
  • 071120Z 24010KT 9999 BKN010 10/08 Q1016
  • 071050Z 23009KT 9999 VCSH SCT009 10/09 Q1016

TAF AMD TAF EGHQ
Valide du 07 à 12h jusqu'au 07 à 21h UTC


071245Z 0712/0721 24008KT 9999 SCT020
TEMPO 0712/0721 6000 -DZ BKN006
BECMG 0717/0720 21018KT
PROB40
TEMPO 0719/0721 22018G28KT



MET'MAP, la Météo Aéronautique d'un coup d'oeil ! - Copyright ORBIFLY Décembre 2007 - Disclaimer

ORBIFLY MET'MAP TEAM :

Programmation & Développement : Alexandra Zaïnal
Sur une idée originale de : Baudouin d'Aumeries
Assistance à la programmation : Marc-Olivier Méhu
Soutien technique & logistique : Manuel Goepfert

Contact : metmap@orbifly.com




SOURCES & CREDITS :

   NOAA